createdAt,value
2022-12-06T00:01:32.475Z,4.90
2022-12-06T00:06:40.814Z,4.28
2022-12-06T00:11:43.478Z,4.15
2022-12-06T00:16:44.797Z,3.85
2022-12-06T00:21:47.244Z,4.53
2022-12-06T00:26:51.052Z,4.32
2022-12-06T00:31:52.312Z,4.28
2022-12-06T00:36:53.257Z,4.63
2022-12-06T00:41:57.358Z,4.75
2022-12-06T00:46:58.244Z,3.70
2022-12-06T00:51:59.099Z,4.28
2022-12-06T00:57:01.404Z,4.65
2022-12-06T01:02:02.309Z,4.63
2022-12-06T01:07:03.190Z,3.85
2022-12-06T01:12:05.511Z,4.90
2022-12-06T01:17:06.361Z,4.13
2022-12-06T01:22:07.182Z,3.90
2022-12-06T01:27:09.311Z,4.55
2022-12-06T01:32:10.167Z,4.57
2022-12-06T01:37:10.984Z,4.80
2022-12-06T01:42:14.312Z,4.85
2022-12-06T01:47:19.723Z,5.07
2022-12-06T01:52:24.767Z,5.45
2022-12-06T01:57:27.099Z,5.50
2022-12-06T02:02:28.135Z,4.35
2022-12-06T02:07:30.588Z,4.82
2022-12-06T02:12:32.770Z,4.97
2022-12-06T02:17:42.926Z,4.97
2022-12-06T02:23:14.358Z,4.82
2022-12-06T02:28:32.782Z,5.90
2022-12-06T02:33:42.073Z,6.28
2022-12-06T02:38:48.161Z,5.97
2022-12-06T02:43:54.852Z,6.13
2022-12-06T02:48:59.537Z,6.80
2022-12-06T02:54:03.628Z,6.53
2022-12-06T02:59:05.669Z,6.70
2022-12-06T03:04:31.614Z,6.65
2022-12-06T03:09:49.468Z,7.28
2022-12-06T03:14:57.005Z,6.75
2022-12-06T03:20:05.999Z,7.35
2022-12-06T03:25:09.125Z,6.38
2022-12-06T03:30:13.808Z,6.97
2022-12-06T03:35:20.671Z,6.70
2022-12-06T03:40:25.630Z,7.80
2022-12-06T03:45:35.217Z,6.78
2022-12-06T03:50:42.268Z,6.78
2022-12-06T03:55:43.464Z,6.80
2022-12-06T04:00:44.234Z,6.80
2022-12-06T04:05:46.405Z,7.28
2022-12-06T04:10:47.181Z,7.20
2022-12-06T04:15:48.190Z,8.23
2022-12-06T04:21:15.345Z,6.55
2022-12-06T04:26:19.060Z,6.68
2022-12-06T04:31:37.408Z,6.70
2022-12-06T04:36:57.792Z,6.75
2022-12-06T04:42:16.299Z,6.38
2022-12-06T04:47:17.254Z,6.47
2022-12-06T04:52:19.536Z,6.72
2022-12-06T04:57:20.331Z,6.20
2022-12-06T05:02:21.174Z,6.47
2022-12-06T05:07:23.303Z,5.50
2022-12-06T05:12:24.082Z,6.35
2022-12-06T05:17:24.918Z,6.47
2022-12-06T05:22:27.076Z,5.53
2022-12-06T05:27:31.607Z,5.72
2022-12-06T05:32:35.727Z,6.43
2022-12-06T05:37:37.920Z,6.22
2022-12-06T05:42:40.945Z,6.28
2022-12-06T05:47:41.770Z,6.28
2022-12-06T05:52:43.944Z,5.65
2022-12-06T05:57:47.413Z,6.07
2022-12-06T06:02:50.081Z,6.40
2022-12-06T06:07:52.415Z,6.40
2022-12-06T06:12:53.915Z,6.28
2022-12-06T06:17:55.168Z,6.50
2022-12-06T06:22:57.420Z,6.25
2022-12-06T06:27:58.268Z,7.45
2022-12-06T06:32:59.043Z,7.28
2022-12-06T06:38:01.774Z,8.38
2022-12-06T06:43:18.286Z,7.82
2022-12-06T06:48:19.347Z,8.15
2022-12-06T06:53:21.751Z,7.60
2022-12-06T06:58:22.693Z,7.80
2022-12-06T07:03:24.848Z,7.55
2022-12-06T07:08:27.843Z,7.63
2022-12-06T07:13:29.883Z,7.65
2022-12-06T07:18:31.014Z,7.50
2022-12-06T07:23:34.416Z,8.43
2022-12-06T07:28:36.765Z,8.02
2022-12-06T07:33:37.890Z,7.47
2022-12-06T07:38:40.267Z,8.20
2022-12-06T07:43:58.596Z,8.88
2022-12-06T07:48:59.382Z,8.60
2022-12-06T07:54:02.082Z,7.13
2022-12-06T07:59:03.343Z,8.18
2022-12-06T08:04:06.268Z,8.63
2022-12-06T08:09:09.411Z,8.25
2022-12-06T08:14:12.213Z,8.18
2022-12-06T08:19:13.070Z,7.82
2022-12-06T08:24:15.534Z,8.77
2022-12-06T08:29:16.875Z,8.60
2022-12-06T08:34:18.227Z,7.95
2022-12-06T08:39:20.477Z,8.18
2022-12-06T08:44:21.549Z,8.88
2022-12-06T08:49:26.283Z,8.75
2022-12-06T08:54:29.135Z,7.93
2022-12-06T08:59:30.031Z,8.10
2022-12-06T09:04:31.073Z,7.93
2022-12-06T09:09:33.316Z,7.85
2022-12-06T09:14:34.190Z,8.40
2022-12-06T09:19:35.304Z,7.28
2022-12-06T09:24:37.575Z,8.43
2022-12-06T09:29:40.791Z,8.45
2022-12-06T09:34:42.205Z,6.68
2022-12-06T09:39:53.648Z,7.97
2022-12-06T09:45:20.258Z,8.23
2022-12-06T09:50:27.595Z,7.80
2022-12-06T09:55:49.873Z,7.90
2022-12-06T10:00:59.384Z,9.80
2022-12-06T10:06:02.905Z,7.63
2022-12-06T10:11:16.158Z,8.13
2022-12-06T10:16:28.107Z,7.45
2022-12-06T10:21:41.684Z,8.02
2022-12-06T10:26:50.047Z,8.60
2022-12-06T10:31:58.263Z,8.18
2022-12-06T10:37:08.526Z,8.60
2022-12-06T10:42:16.666Z,7.85
2022-12-06T10:47:22.491Z,7.32
2022-12-06T10:52:35.987Z,7.60
2022-12-06T10:57:45.825Z,7.78
2022-12-06T11:02:56.171Z,7.78
2022-12-06T11:08:04.359Z,7.30
2022-12-06T11:13:21.335Z,8.25
2022-12-06T11:18:23.481Z,7.05
2022-12-06T11:23:33.724Z,8.20
2022-12-06T11:28:39.100Z,7.47
2022-12-06T11:33:40.087Z,7.60
2022-12-06T11:38:44.051Z,7.32
2022-12-06T11:43:46.606Z,8.00
2022-12-06T11:48:48.066Z,7.28
2022-12-06T11:54:01.672Z,7.93
2022-12-06T11:59:22.544Z,9.18
2022-12-06T12:04:43.044Z,8.57
2022-12-06T12:09:55.092Z,8.38
2022-12-06T12:14:59.364Z,8.43
2022-12-06T12:20:04.044Z,8.27
2022-12-06T12:25:22.437Z,8.77
2022-12-06T12:30:28.335Z,8.25
2022-12-06T12:35:29.365Z,8.18
2022-12-06T12:40:35.190Z,8.23
2022-12-06T12:45:38.071Z,8.13
2022-12-06T12:50:38.964Z,7.80
2022-12-06T12:55:41.864Z,8.07
2022-12-06T13:00:49.565Z,7.82
2022-12-06T13:05:51.764Z,7.30
2022-12-06T13:10:59.235Z,7.47
2022-12-06T13:16:10.632Z,7.47
2022-12-06T13:21:22.691Z,7.72
2022-12-06T13:26:27.434Z,7.40
2022-12-06T13:31:36.430Z,8.15
2022-12-06T13:36:37.412Z,7.57
2022-12-06T13:42:13.662Z,8.77
2022-12-06T13:47:50.376Z,9.65
2022-12-06T13:53:05.408Z,8.80
2022-12-06T13:58:40.942Z,9.57
2022-12-06T14:03:43.444Z,9.13
2022-12-06T14:08:46.375Z,8.73
2022-12-06T14:13:48.895Z,8.57
2022-12-06T14:18:52.146Z,8.30
2022-12-06T14:23:53.336Z,8.85
2022-12-06T14:28:56.575Z,8.52
2022-12-06T14:33:59.082Z,8.00
2022-12-06T14:39:02.814Z,8.55
2022-12-06T14:44:12.336Z,9.35
2022-12-06T14:49:38.440Z,8.05
2022-12-06T14:54:43.984Z,7.20
2022-12-06T15:00:14.370Z,7.18
2022-12-06T15:05:34.984Z,7.85
2022-12-06T15:10:35.814Z,8.30
2022-12-06T15:15:39.862Z,8.25
2022-12-06T15:20:42.096Z,7.57
2022-12-06T15:25:42.888Z,7.78
2022-12-06T15:30:43.826Z,7.30
2022-12-06T15:35:46.188Z,6.55
2022-12-06T15:40:50.696Z,6.28
2022-12-06T15:45:51.561Z,6.38
2022-12-06T15:50:55.169Z,6.28
2022-12-06T15:55:56.045Z,6.50
2022-12-06T16:00:58.929Z,6.28
2022-12-06T16:06:01.090Z,6.20
2022-12-06T16:11:17.125Z,6.82
2022-12-06T16:16:20.202Z,7.47
2022-12-06T16:21:25.820Z,7.07
2022-12-06T16:26:26.611Z,6.53
2022-12-06T16:31:27.944Z,6.78
2022-12-06T16:36:32.052Z,7.05
2022-12-06T16:41:35.066Z,6.13
2022-12-06T16:46:37.337Z,6.38
2022-12-06T16:51:39.479Z,5.95
2022-12-06T16:56:41.817Z,6.32
2022-12-06T17:01:49.415Z,5.88
2022-12-06T17:06:51.685Z,5.93
2022-12-06T17:12:06.629Z,5.80
2022-12-06T17:17:07.842Z,6.30
2022-12-06T17:22:12.794Z,6.18
2022-12-06T17:27:14.884Z,5.40
2022-12-06T17:32:16.043Z,4.40
2022-12-06T17:37:18.258Z,4.78
2022-12-06T17:42:36.806Z,4.30
2022-12-06T17:47:37.596Z,4.22
2022-12-06T17:52:39.798Z,3.70
2022-12-06T17:57:40.658Z,3.63
2022-12-06T18:02:41.669Z,3.03
2022-12-06T18:07:44.025Z,3.60
2022-12-06T18:12:44.979Z,3.75
2022-12-06T18:17:45.793Z,3.60
2022-12-06T18:22:48.526Z,3.30
2022-12-06T18:27:49.779Z,3.00
2022-12-06T18:32:50.658Z,3.15
2022-12-06T18:37:52.954Z,3.05
2022-12-06T18:42:53.963Z,2.85
2022-12-06T18:47:55.001Z,3.17
2022-12-06T18:52:57.127Z,2.80
2022-12-06T18:57:58.491Z,2.72
2022-12-06T19:03:00.607Z,2.83
2022-12-06T19:08:03.383Z,3.20
2022-12-06T19:13:06.100Z,2.90
2022-12-06T19:18:07.085Z,3.20
2022-12-06T19:23:09.264Z,3.17
2022-12-06T19:28:10.201Z,3.05
2022-12-06T19:33:11.167Z,3.10
2022-12-06T19:38:13.367Z,2.95
2022-12-06T19:43:32.000Z,2.80
2022-12-06T19:48:32.883Z,3.10
2022-12-06T19:53:37.581Z,2.70
2022-12-06T19:58:38.903Z,3.08
2022-12-06T20:03:39.957Z,2.97
2022-12-06T20:08:42.569Z,2.63
2022-12-06T20:13:43.491Z,2.60
2022-12-06T20:18:44.350Z,3.88
2022-12-06T20:23:46.650Z,2.47
2022-12-06T20:28:49.009Z,2.65
2022-12-06T20:33:50.553Z,2.60
2022-12-06T20:38:53.831Z,2.65
2022-12-06T20:43:54.695Z,2.45
2022-12-06T20:48:56.498Z,2.60
2022-12-06T20:54:00.101Z,3.17
2022-12-06T20:59:02.962Z,2.55
2022-12-06T21:04:04.265Z,2.50
2022-12-06T21:09:06.844Z,4.35
2022-12-06T21:14:07.622Z,2.75
2022-12-06T21:19:11.808Z,3.50
2022-12-06T21:24:15.856Z,3.00
2022-12-06T21:29:17.851Z,3.17
2022-12-06T21:34:19.363Z,3.58
2022-12-06T21:39:21.511Z,3.20
2022-12-06T21:44:22.453Z,3.33
2022-12-06T21:49:23.390Z,3.05
2022-12-06T21:54:25.567Z,2.88
2022-12-06T21:59:26.930Z,3.45
2022-12-06T22:04:27.721Z,3.17
2022-12-06T22:09:29.931Z,3.38
2022-12-06T22:14:30.999Z,4.10
2022-12-06T22:19:31.920Z,4.32
2022-12-06T22:24:34.354Z,4.50
2022-12-06T22:29:35.163Z,5.40
2022-12-06T22:34:35.957Z,5.10
2022-12-06T22:39:38.123Z,6.20
2022-12-06T22:44:38.897Z,5.90
2022-12-06T22:49:39.670Z,7.63
2022-12-06T22:54:41.867Z,8.82
2022-12-06T22:59:42.664Z,8.98
2022-12-06T23:04:43.467Z,10.80
2022-12-06T23:09:45.758Z,10.75
2022-12-06T23:14:46.746Z,12.23
2022-12-06T23:19:47.657Z,11.48
2022-12-06T23:24:51.575Z,13.35
2022-12-06T23:29:52.420Z,12.32
2022-12-06T23:34:53.225Z,12.35
2022-12-06T23:39:55.439Z,12.55
2022-12-06T23:44:56.203Z,10.25
2022-12-06T23:49:56.969Z,11.60
2022-12-06T23:54:59.742Z,10.70
